LFSTLFLL

Guest
Details From LFST - Entzheim
To LFLL - Lyon Saint Exupery
Flight Number -
Tags generated
Created
Modified
Stats Distance 198 nm / 367 km
Max Altitude 20,000 ft / 6,096 m
Waypoints 3
Social Downloads 1
Likes 0
Share

Download

Looking for another format? Having issues loading an existing format? Contact us
Advertisement - Login to hide

Notes

Basic altitude profile: - Ascent Rate: 2500ft/min - Ascent Speed: 250kts - Cruise Altitude: 3000ft - Cruise Speed: 280kts - Descent Rate: 1500ft/min - Descent Speed: 220kts Options: - Use NATs: yes - Use PACOTS: yes - Use low airways: yes - Use high airways: yes

Route

LFST GILIR LFLL

ID Type Via Altitude (ft/m) Position (lat/lon) Dist (leg/tot) Name
O LFST APT - 0 / 0 48.53833 / 7.62826 - / 0 nm Entzheim
GILIR FIX - 20,000 / 6,096 47.06333 / 6.23917 104 / 104 nm
O LFLL APT - 0 / 0 45.72581 / 5.09075 93 / 198 nm Lyon Saint Exupery

Altitude Profile

Advertisement - Login to hide

Weather


0- 5 10 15 20 25 30 35+ Temperature / °C

Clouds and Precipitation
Forecast for 2022-05-28 00:00 UTC. Updated an hour ago

Ground ~20,000 ft ~40,000 ft Winds

LFST

Details ICAO LFST (SXB)
Name Entzheim
Region France
Timezone Europe/Paris (UTC+2.0)
Stats Elevation 504 ft / 154 m (AMSL)
Location 48.538300° 7.628260°
Runways 1
Magnetic Variation 2.664° E

METAR

LFST 272230Z AUTO 24006KT 220V280 CAVOK 15/10 Q1022 NOSIG

Decode

TAF

TAF LFST 271700Z 2718/2818 30008KT 9999 FEW035 BKN060

Decode

Departure Runways

ID Width Length Bearing (true/mag) Surface Threshold Overrun Markings Lighting
05 148 ft / 45 m 7,899 ft / 2,408 m 48.60° / 45.94° ASPHALT 0 ft / 0 m 860 ft / 262 m UK-PREC-APP CENTERLINE EDGE THRESHOLD REIL-OMNI
23 148 ft / 45 m 7,899 ft / 2,408 m 228.62° / 225.96° ASPHALT 0 ft / 0 m 902 ft / 275 m UK-PREC-APP CENTERLINE EDGE THRESHOLD CALVERT-ILS TDZ REIL-OMNI

LFLL

Details ICAO LFLL (LYS)
Name Lyon Saint Exupery
Region France
Timezone Europe/Paris (UTC+2.0)
Stats Elevation 817 ft / 249 m (AMSL)
Location 45.725800° 5.090730°
Runways 2
Magnetic Variation 2.024° E

METAR

LFLL 272230Z 34013KT 9999 SCT040 17/11 Q1022 NOSIG

Decode

TAF

TAF LFLL 271700Z 2718/2824 36012KT CAVOK TEMPO 2809/2821 36017G27KT= TAF LFPG 271700Z 2718/2824 30010KT CAVOK TX21/2814Z TN08/2804Z BECMG 2806/2807 02005KT TEMPO 2816/2819 02015G25KT

Decode

Destination Runways

ID Width Length Bearing (true/mag) Surface Threshold Overrun Markings Lighting
17L 148 ft / 45 m 8,766 ft / 2,672 m 175.14° / 173.12° ASPHALT 0 ft / 0 m 59 ft / 18 m PREC-APP CENTERLINE EDGE THRESHOLD RAIL REIL-OMNI
17R 145 ft / 44 m 13,135 ft / 4,003 m 175.14° / 173.12° ASPHALT 0 ft / 0 m 190 ft / 58 m PREC-APP CENTERLINE EDGE THRESHOLD RAIL REIL-OMNI
35L 145 ft / 44 m 13,135 ft / 4,003 m 355.14° / 353.12° ASPHALT 0 ft / 0 m 184 ft / 56 m PREC-APP CENTERLINE EDGE THRESHOLD CALVERT TDZ REIL-OMNI
35R 148 ft / 45 m 8,766 ft / 2,672 m 355.14° / 353.12° ASPHALT 0 ft / 0 m 62 ft / 19 m PREC-APP CENTERLINE EDGE THRESHOLD CALVERT TDZ REIL-OMNI

Approach Navaids

Runway Type Ident Frequency Range Bearing (true/mag) Slope Elevation
17L GS LSS 109.10 MHz 10 nm / 19 km 175.14° / 173.12 ° 3.00° 818 ft / 249 m (AMSL)
17L LOC-ILS LSS 109.10 MHz 18 nm / 33 km 175.14° / 173.12 ° - 818 ft / 249 m (AMSL)
17L DME LSS 109.10 MHz 18 nm / 33 km - - 775 ft / 236 m (AMSL)
35L OM OM - - 355.16° / 353.14 ° - 937 ft / 286 m (AMSL)
35L LOC-ILS SAN 110.75 MHz 18 nm / 33 km 355.15° / 353.13 ° - 818 ft / 249 m (AMSL)
35L DME SAN 110.75 MHz 18 nm / 33 km - - 810 ft / 247 m (AMSL)
35L GS SAN 110.75 MHz 10 nm / 19 km 355.15° / 353.13 ° 3.00° 818 ft / 249 m (AMSL)
35R GS LSN 111.50 MHz 10 nm / 19 km 355.14° / 353.12 ° 3.00° 818 ft / 249 m (AMSL)
35R LOC-ILS LSN 111.50 MHz 18 nm / 33 km 355.14° / 353.12 ° - 818 ft / 249 m (AMSL)
35R DME LSN 111.50 MHz 18 nm / 33 km - - 812 ft / 247 m (AMSL)

Popular Alternatives